Wetterdaten: Woche 22.09.14 - 28.09.14 (KW39)
Datum Zeit Temp. A. Feuchte A. Luftdruck Regen Wind Richtung Sonnenschein ET UV Solar Taupunkt Windchill Windben
22.09.2014 00:00 11,2 C 95 % 1013,6 hPa 0,0 l/m 4,2 km/h (1 Bft) NW 0,00 h 0,000 mm 0,0 UV-I 0 W/m 10,4 C 11,1 C 7,5 km/h (2 Bft)
22.09.2014 01:00 10,8 C 95 % 1014,0 hPa 0,0 l/m 6,0 km/h (2 Bft) NW 0,00 h 0,000 mm 0,0 UV-I 0 W/m 10,0 C 10,4 C 10,4 km/h (2 Bft)
22.09.2014 02:00 10,2 C 93 % 1014,1 hPa 0,0 l/m 7,0 km/h (2 Bft) NW 0,00 h 0,000 mm 0,0 UV-I 0 W/m 9,2 C 9,4 C 11,4 km/h (2 Bft)
22.09.2014 03:00 9,8 C 93 % 1014,1 hPa 0,0 l/m 5,2 km/h (1 Bft) NW 0,00 h 0,000 mm 0,0 UV-I 0 W/m 8,7 C 9,4 C 8,4 km/h (2 Bft)
22.09.2014 04:00 9,2 C 93 % 1014,1 hPa 0,0 l/m 3,0 km/h (1 Bft) W 0,00 h 0,000 mm 0,0 UV-I 0 W/m 8,1 C 9,2 C 5,6 km/h (1 Bft)
22.09.2014 05:00 9,2 C 93 % 1014,3 hPa 0,6 l/m 4,9 km/h (1 Bft) W-SW 0,00 h 0,000 mm 0,0 UV-I 0 W/m 8,1 C 9,0 C 8,5 km/h (2 Bft)
22.09.2014 06:00 9,1 C 95 % 1014,4 hPa 0,0 l/m 2,6 km/h (1 Bft) W-SW 0,00 h 0,000 mm 0,0 UV-I 0 W/m 8,4 C 9,1 C 4,8 km/h (1 Bft)
22.09.2014 07:00 9,2 C 96 % 1014,4 hPa 0,0 l/m 1,3 km/h (1 Bft) SW 0,00 h 0,000 mm 0,0 UV-I 16 W/m 8,6 C 9,2 C 3,3 km/h (1 Bft)
22.09.2014 08:00 9,3 C 95 % 1014,4 hPa 0,2 l/m 4,3 km/h (1 Bft) W 0,47 h 0,000 mm 0,6 UV-I 64 W/m 8,6 C 8,9 C 7,7 km/h (2 Bft)
22.09.2014 09:00 9,9 C 92 % 1014,5 hPa 0,0 l/m 4,8 km/h (1 Bft) W-SW 0,60 h 0,025 mm 0,5 UV-I 59 W/m 8,7 C 9,7 C 8,4 km/h (2 Bft)
22.09.2014 10:00 9,9 C 90 % 1014,6 hPa 1,0 l/m 8,8 km/h (2 Bft) W 0,62 h 0,025 mm 0,7 UV-I 66 W/m 8,3 C 8,2 C 13,7 km/h (3 Bft)
22.09.2014 11:00 9,3 C 91 % 1014,2 hPa 0,0 l/m 4,9 km/h (1 Bft) W 1,00 h 0,051 mm 1,4 UV-I 182 W/m 7,8 C 9,1 C 7,8 km/h (2 Bft)
22.09.2014 12:00 9,0 C 91 % 1014,2 hPa 2,2 l/m 10,1 km/h (2 Bft) W 0,57 h 0,076 mm 0,8 UV-I 63 W/m 7,5 C 6,5 C 15,3 km/h (3 Bft)
22.09.2014 13:00 7,7 C 95 % 1013,7 hPa 1,2 l/m 2,7 km/h (1 Bft) W-SW 0,60 h 0,051 mm 0,8 UV-I 68 W/m 6,9 C 7,7 C 5,1 km/h (1 Bft)
22.09.2014 14:00 8,8 C 94 % 1013,4 hPa 0,0 l/m 4,4 km/h (1 Bft) N-NW 0,80 h 0,025 mm 1,0 UV-I 98 W/m 7,8 C 8,4 C 7,8 km/h (2 Bft)
22.09.2014 15:00 9,4 C 92 % 1013,0 hPa 0,4 l/m 5,5 km/h (1 Bft) W-NW 1,00 h 0,051 mm 1,0 UV-I 186 W/m 8,2 C 8,6 C 8,8 km/h (2 Bft)
22.09.2014 16:00 9,0 C 92 % 1013,6 hPa 2,4 l/m 6,5 km/h (2 Bft) N-NW 0,73 h 0,076 mm 0,7 UV-I 87 W/m 7,8 C 8,1 C 10,8 km/h (2 Bft)
22.09.2014 17:00 8,2 C 93 % 1013,9 hPa 0,0 l/m 6,7 km/h (2 Bft) NW 0,28 h 0,051 mm 0,0 UV-I 42 W/m 7,1 C 7,4 C 10,9 km/h (2 Bft)
22.09.2014 18:00 8,6 C 92 % 1014,7 hPa 0,0 l/m 7,1 km/h (2 Bft) W-NW 0,30 h 0,025 mm 0,0 UV-I 36 W/m 7,3 C 7,6 C 11,1 km/h (2 Bft)
22.09.2014 19:00 7,8 C 91 % 1015,7 hPa 0,0 l/m 2,7 km/h (1 Bft) W-SW 0,00 h 0,025 mm 0,0 UV-I 0 W/m 6,4 C 7,8 C 5,2 km/h (1 Bft)
22.09.2014 20:00 7,2 C 92 % 1016,5 hPa 0,0 l/m 2,8 km/h (1 Bft) W-SW 0,00 h 0,000 mm 0,0 UV-I 0 W/m 6,1 C 7,2 C 5,2 km/h (1 Bft)
22.09.2014 21:00 7,1 C 93 % 1017,0 hPa 0,0 l/m 3,9 km/h (1 Bft) W 0,00 h 0,000 mm 0,0 UV-I 0 W/m 6,0 C 7,0 C 7,1 km/h (2 Bft)
22.09.2014 22:00 7,2 C 93 % 1017,1 hPa 0,0 l/m 3,8 km/h (1 Bft) W 0,00 h 0,002 mm 0,0 UV-I 0 W/m 6,2 C 7,2 C 6,5 km/h (2 Bft)
22.09.2014 23:00 7,4 C 94 % 1017,1 hPa 0,0 l/m 5,9 km/h (2 Bft) W 0,00 h 0,000 mm 0,0 UV-I 0 W/m 6,5 C 7,1 C 9,4 km/h (2 Bft)
23.09.2014 00:00 7,4 C 96 % 1017,3 hPa 0,2 l/m 6,5 km/h (2 Bft) W 0,00 h 0,000 mm 0,0 UV-I 0 W/m 6,8 C 6,8 C 10,2 km/h (2 Bft)
23.09.2014 01:00 7,5 C 96 % 1017,3 hPa 0,0 l/m 6,1 km/h (2 Bft) NW 0,00 h 0,000 mm 0,0 UV-I 0 W/m 6,9 C 6,8 C 10,2 km/h (2 Bft)
23.09.2014 02:00 7,7 C 96 % 1017,5 hPa 0,0 l/m 6,7 km/h (2 Bft) NW 0,00 h 0,000 mm 0,0 UV-I 0 W/m 7,1 C 7,0 C 10,8 km/h (2 Bft)
23.09.2014 03:00 7,8 C 96 % 1017,6 hPa 0,0 l/m 4,6 km/h (1 Bft) W-NW 0,00 h 0,000 mm 0,0 UV-I 0 W/m 7,2 C 7,5 C 8,3 km/h (2 Bft)
23.09.2014 04:00 7,9 C 95 % 1017,7 hPa 0,2 l/m 4,9 km/h (1 Bft) NW 0,00 h 0,000 mm 0,0 UV-I 0 W/m 7,2 C 7,8 C 8,5 km/h (2 Bft)
23.09.2014 05:00 8,0 C 95 % 1017,9 hPa 0,0 l/m 5,3 km/h (1 Bft) NW 0,00 h 0,000 mm 0,0 UV-I 0 W/m 7,2 C 7,8 C 8,6 km/h (2 Bft)
23.09.2014 06:00 7,9 C 94 % 1018,5 hPa 0,0 l/m 5,1 km/h (1 Bft) NW 0,00 h 0,000 mm 0,0 UV-I 0 W/m 7,1 C 7,7 C 8,4 km/h (2 Bft)
23.09.2014 07:00 8,0 C 94 % 1019,2 hPa 0,0 l/m 5,6 km/h (1 Bft) NW 0,00 h 0,000 mm 0,0 UV-I 8 W/m 7,1 C 7,7 C 9,0 km/h (2 Bft)
23.09.2014 08:00 8,2 C 93 % 1019,9 hPa 0,0 l/m 4,7 km/h (1 Bft) NW 0,30 h 0,000 mm 0,5 UV-I 35 W/m 7,1 C 8,0 C 7,9 km/h (2 Bft)
23.09.2014 09:00 9,0 C 91 % 1020,5 hPa 0,0 l/m 7,6 km/h (2 Bft) NW 1,00 h 0,025 mm 0,7 UV-I 105 W/m 7,5 C 8,0 C 11,5 km/h (2 Bft)
23.09.2014 10:00 9,4 C 88 % 1021,1 hPa 0,0 l/m 7,3 km/h (2 Bft) NW 1,00 h 0,051 mm 1,0 UV-I 120 W/m 7,4 C 8,3 C 11,1 km/h (2 Bft)
23.09.2014 11:00 10,1 C 82 % 1021,1 hPa 0,0 l/m 7,6 km/h (2 Bft) NW 1,00 h 0,076 mm 1,7 UV-I 208 W/m 7,3 C 8,9 C 12,1 km/h (2 Bft)
23.09.2014 12:00 11,0 C 76 % 1021,1 hPa 0,0 l/m 8,7 km/h (2 Bft) W 1,00 h 0,102 mm 2,8 UV-I 368 W/m 6,9 C 9,4 C 13,1 km/h (3 Bft)
23.09.2014 13:00 11,4 C 71 % 1021,1 hPa 0,0 l/m 6,0 km/h (2 Bft) W 1,00 h 0,203 mm 2,1 UV-I 284 W/m 6,4 C 10,9 C 9,3 km/h (2 Bft)
23.09.2014 14:00 11,4 C 72 % 1021,1 hPa 0,0 l/m 8,0 km/h (2 Bft) W-SW 1,00 h 0,152 mm 1,9 UV-I 223 W/m 6,5 C 10,1 C 11,5 km/h (2 Bft)
23.09.2014 15:00 11,6 C 70 % 1020,7 hPa 0,0 l/m 8,5 km/h (2 Bft) W-SW 1,00 h 0,152 mm 1,6 UV-I 215 W/m 6,4 C 10,2 C 12,9 km/h (3 Bft)
23.09.2014 16:00 12,1 C 67 % 1020,1 hPa 0,0 l/m 7,6 km/h (2 Bft) W-SW 1,00 h 0,152 mm 1,0 UV-I 206 W/m 6,2 C 11,1 C 11,9 km/h (2 Bft)
23.09.2014 17:00 11,7 C 69 % 1019,4 hPa 0,0 l/m 5,4 km/h (1 Bft) W-SW 1,00 h 0,128 mm 0,6 UV-I 104 W/m 6,2 C 11,4 C 8,4 km/h (2 Bft)
23.09.2014 18:00 11,4 C 71 % 1019,2 hPa 0,0 l/m 4,2 km/h (1 Bft) W-SW 0,45 h 0,076 mm 0,0 UV-I 47 W/m 6,2 C 11,1 C 6,9 km/h (2 Bft)
23.09.2014 19:00 9,4 C 81 % 1019,4 hPa 0,0 l/m 0,1 km/h (0 Bft) W-SW 0,00 h 0,051 mm 0,0 UV-I 5 W/m 6,3 C 9,4 C 0,4 km/h (0 Bft)
23.09.2014 20:00 8,8 C 87 % 1019,7 hPa 0,0 l/m 0,1 km/h (0 Bft) O-NO 0,00 h 0,000 mm 0,0 UV-I 0 W/m 6,7 C 8,8 C 0,7 km/h (0 Bft)
23.09.2014 21:00 8,5 C 89 % 1019,7 hPa 0,0 l/m 0,4 km/h (0 Bft) O-SO 0,00 h 0,000 mm 0,0 UV-I 0 W/m 6,7 C 8,5 C 1,3 km/h (1 Bft)
23.09.2014 22:00 8,0 C 90 % 1019,8 hPa 0,0 l/m 0,0 km/h (0 Bft) SO 0,00 h 0,000 mm 0,0 UV-I 0 W/m 6,5 C 8,0 C 0,4 km/h (0 Bft)
23.09.2014 23:00 7,2 C 92 % 1019,9 hPa 0,0 l/m 0,0 km/h (0 Bft) N 0,00 h 0,000 mm 0,0 UV-I 0 W/m 6,0 C 7,2 C 0,2 km/h (0 Bft)
24.09.2014 00:00 6,2 C 91 % 1019,5 hPa 0,0 l/m 0,0 km/h (0 Bft) N 0,00 h 0,000 mm 0,0 UV-I 0 W/m 4,9 C 6,2 C 0,0 km/h (0 Bft)
24.09.2014 01:00 5,0 C 92 % 1019,3 hPa 0,0 l/m 0,0 km/h (0 Bft) N 0,00 h 0,000 mm 0,0 UV-I 0 W/m 3,8 C 5,0 C 0,1 km/h (0 Bft)
24.09.2014 02:00 3,8 C 92 % 1018,9 hPa 0,0 l/m 0,0 km/h (0 Bft) N 0,00 h 0,000 mm 0,0 UV-I 0 W/m 2,7 C 3,8 C 0,0 km/h (0 Bft)
24.09.2014 03:00 2,8 C 92 % 1018,1 hPa 0,0 l/m 0,0 km/h (0 Bft) O-NO 0,00 h 0,000 mm 0,0 UV-I 0 W/m 1,7 C 2,8 C 0,2 km/h (0 Bft)
24.09.2014 04:00 2,1 C 93 % 1017,6 hPa 0,0 l/m 0,0 km/h (0 Bft) N 0,00 h 0,000 mm 0,0 UV-I 0 W/m 1,1 C 2,1 C 0,0 km/h (0 Bft)
24.09.2014 05:00 1,8 C 95 % 1017,4 hPa 0,0 l/m 0,4 km/h (0 Bft) N-NO 0,00 h 0,000 mm 0,0 UV-I 0 W/m 1,0 C 1,8 C 1,1 km/h (1 Bft)
24.09.2014 06:00 1,9 C 96 % 1017,2 hPa 0,0 l/m 0,0 km/h (0 Bft) N 0,00 h 0,000 mm 0,0 UV-I 5 W/m 1,3 C 1,9 C 0,2 km/h (0 Bft)
24.09.2014 07:00 1,6 C 96 % 1017,1 hPa 0,0 l/m 0,0 km/h (0 Bft) N 0,13 h 0,000 mm 0,0 UV-I 30 W/m 1,1 C 1,6 C 0,2 km/h (0 Bft)
24.09.2014 08:00 2,4 C 97 % 1016,8 hPa 0,0 l/m 0,0 km/h (0 Bft) N 1,00 h 0,000 mm 0,6 UV-I 122 W/m 2,0 C 2,4 C 0,0 km/h (0 Bft)
24.09.2014 09:00 6,5 C 95 % 1016,3 hPa 0,0 l/m 0,3 km/h (0 Bft) N-NO 1,00 h 0,051 mm 1,1 UV-I 337 W/m 5,7 C 6,5 C 1,2 km/h (1 Bft)
24.09.2014 10:00 10,1 C 83 % 1016,0 hPa 0,0 l/m 1,3 km/h (1 Bft) N 1,00 h 0,127 mm 2,0 UV-I 413 W/m 7,4 C 10,1 C 2,9 km/h (1 Bft)
24.09.2014 11:00 12,4 C 72 % 1015,4 hPa 0,0 l/m 3,7 km/h (1 Bft) W 1,00 h 0,203 mm 3,1 UV-I 558 W/m 7,5 C 12,2 C 6,6 km/h (2 Bft)
24.09.2014 12:00 13,9 C 64 % 1014,9 hPa 0,0 l/m 7,4 km/h (2 Bft) S 1,00 h 0,279 mm 3,9 UV-I 644 W/m 7,3 C 13,0 C 11,8 km/h (2 Bft)
24.09.2014 13:00 15,1 C 61 % 1013,8 hPa 0,0 l/m 5,6 km/h (1 Bft) S-SO 1,00 h 0,356 mm 4,1 UV-I 685 W/m 7,6 C 14,8 C 8,8 km/h (2 Bft)
24.09.2014 14:00 15,4 C 57 % 1013,2 hPa 0,0 l/m 5,3 km/h (1 Bft) S-SO 1,00 h 0,381 mm 2,7 UV-I 402 W/m 6,8 C 15,1 C 8,8 km/h (2 Bft)
24.09.2014 15:00 15,0 C 56 % 1012,8 hPa 0,0 l/m 7,4 km/h (2 Bft) S 1,00 h 0,254 mm 1,8 UV-I 294 W/m 6,2 C 14,2 C 11,9 km/h (2 Bft)
24.09.2014 16:00 14,6 C 60 % 1012,3 hPa 0,0 l/m 5,3 km/h (1 Bft) S 1,00 h 0,203 mm 1,1 UV-I 198 W/m 7,0 C 14,4 C 8,9 km/h (2 Bft)
24.09.2014 17:00 14,0 C 65 % 1012,1 hPa 0,0 l/m 3,5 km/h (1 Bft) SW 0,87 h 0,127 mm 0,6 UV-I 87 W/m 7,5 C 14,0 C 6,5 km/h (2 Bft)
24.09.2014 18:00 12,8 C 73 % 1011,9 hPa 0,0 l/m 0,7 km/h (0 Bft) S-SW 0,00 h 0,076 mm 0,0 UV-I 22 W/m 8,0 C 12,8 C 2,3 km/h (1 Bft)
24.09.2014 19:00 11,1 C 84 % 1011,8 hPa 0,0 l/m 0,1 km/h (0 Bft) SO 0,00 h 0,025 mm 0,0 UV-I 0 W/m 8,5 C 11,1 C 0,7 km/h (0 Bft)
24.09.2014 20:00 10,1 C 89 % 1012,0 hPa 0,0 l/m 0,1 km/h (0 Bft) O-SO 0,00 h 0,000 mm 0,0 UV-I 0 W/m 8,3 C 10,1 C 0,5 km/h (0 Bft)
24.09.2014 21:00 9,9 C 88 % 1012,0 hPa 0,0 l/m 0,6 km/h (0 Bft) S-SW 0,00 h 0,000 mm 0,0 UV-I 0 W/m 8,1 C 9,9 C 1,5 km/h (1 Bft)
24.09.2014 22:00 10,4 C 88 % 1012,5 hPa 0,0 l/m 3,7 km/h (1 Bft) SW 0,00 h 0,000 mm 0,0 UV-I 0 W/m 8,4 C 10,3 C 6,6 km/h (2 Bft)
24.09.2014 23:00 10,5 C 86 % 1012,7 hPa 0,0 l/m 4,6 km/h (1 Bft) W-SW 0,00 h 0,000 mm 0,0 UV-I 0 W/m 8,3 C 10,4 C 8,0 km/h (2 Bft)
25.09.2014 00:00 10,2 C 88 % 1012,8 hPa 0,0 l/m 3,9 km/h (1 Bft) W-NW 0,00 h 0,025 mm 0,0 UV-I 0 W/m 8,2 C 10,1 C 6,8 km/h (2 Bft)
25.09.2014 01:00 9,7 C 89 % 1012,9 hPa 0,0 l/m 1,7 km/h (1 Bft) W-NW 0,00 h 0,000 mm 0,0 UV-I 0 W/m 7,9 C 9,7 C 3,4 km/h (1 Bft)
25.09.2014 02:00 9,3 C 90 % 1013,4 hPa 0,0 l/m 0,3 km/h (0 Bft) S-SW 0,00 h 0,000 mm 0,0 UV-I 0 W/m 7,8 C 9,3 C 1,5 km/h (1 Bft)
25.09.2014 03:00 9,2 C 91 % 1013,7 hPa 0,0 l/m 2,2 km/h (1 Bft) S-SW 0,00 h 0,000 mm 0,0 UV-I 0 W/m 7,8 C 9,2 C 4,4 km/h (1 Bft)
25.09.2014 04:00 9,0 C 91 % 1014,0 hPa 0,0 l/m 1,7 km/h (1 Bft) S 0,00 h 0,000 mm 0,0 UV-I 0 W/m 7,6 C 9,0 C 4,0 km/h (1 Bft)
25.09.2014 05:00 8,9 C 92 % 1014,4 hPa 0,0 l/m 2,2 km/h (1 Bft) SW 0,00 h 0,000 mm 0,0 UV-I 0 W/m 7,6 C 8,9 C 4,7 km/h (1 Bft)
25.09.2014 06:00 9,2 C 93 % 1014,9 hPa 0,0 l/m 2,2 km/h (1 Bft) SW 0,00 h 0,000 mm 0,0 UV-I 0 W/m 8,0 C 9,2 C 4,5 km/h (1 Bft)
25.09.2014 07:00 9,1 C 94 % 1015,4 hPa 0,0 l/m 2,6 km/h (1 Bft) W-SW 0,00 h 0,000 mm 0,0 UV-I 13 W/m 8,3 C 9,1 C 5,0 km/h (1 Bft)
25.09.2014 08:00 9,5 C 95 % 1015,7 hPa 0,0 l/m 4,1 km/h (1 Bft) W-SW 0,47 h 0,000 mm 0,6 UV-I 71 W/m 8,7 C 9,4 C 7,0 km/h (2 Bft)
25.09.2014 09:00 10,2 C 92 % 1016,5 hPa 0,0 l/m 6,3 km/h (2 Bft) W-SW 0,77 h 0,025 mm 0,6 UV-I 67 W/m 9,0 C 9,5 C 10,4 km/h (2 Bft)
25.09.2014 10:00 10,9 C 91 % 1016,9 hPa 0,0 l/m 7,9 km/h (2 Bft) W-SW 1,00 h 0,025 mm 1,2 UV-I 197 W/m 9,4 C 9,7 C 12,6 km/h (3 Bft)
25.09.2014 11:00 11,6 C 86 % 1017,3 hPa 0,0 l/m 9,4 km/h (2 Bft) W 1,00 h 0,076 mm 1,8 UV-I 182 W/m 9,4 C 9,8 C 14,4 km/h (3 Bft)
25.09.2014 12:00 12,0 C 84 % 1017,6 hPa 0,0 l/m 9,1 km/h (2 Bft) W 1,00 h 0,076 mm 2,0 UV-I 218 W/m 9,3 C 10,4 C 14,1 km/h (3 Bft)
25.09.2014 13:00 13,1 C 78 % 1017,6 hPa 0,0 l/m 10,4 km/h (2 Bft) W 1,00 h 0,127 mm 2,2 UV-I 305 W/m 9,4 C 10,9 C 16,3 km/h (3 Bft)
25.09.2014 14:00 13,0 C 77 % 1017,9 hPa 0,0 l/m 10,0 km/h (2 Bft) W 1,00 h 0,178 mm 1,3 UV-I 165 W/m 9,2 C 11,0 C 15,2 km/h (3 Bft)
25.09.2014 15:00 12,8 C 78 % 1018,3 hPa 0,0 l/m 9,6 km/h (2 Bft) W 1,00 h 0,102 mm 0,7 UV-I 96 W/m 9,0 C 10,9 C 14,5 km/h (3 Bft)
25.09.2014 16:00 12,9 C 79 % 1018,5 hPa 0,0 l/m 9,3 km/h (2 Bft) W 1,00 h 0,076 mm 0,8 UV-I 132 W/m 9,3 C 11,1 C 14,3 km/h (3 Bft)
25.09.2014 17:00 12,6 C 82 % 1019,1 hPa 0,0 l/m 7,6 km/h (2 Bft) W 0,68 h 0,076 mm 0,5 UV-I 65 W/m 9,6 C 11,7 C 11,8 km/h (2 Bft)
25.09.2014 18:00 12,3 C 83 % 1019,7 hPa 0,0 l/m 7,5 km/h (2 Bft) W-SW 0,13 h 0,051 mm 0,0 UV-I 30 W/m 9,5 C 11,5 C 11,1 km/h (2 Bft)
25.09.2014 19:00 11,8 C 85 % 1020,2 hPa 0,0 l/m 5,5 km/h (1 Bft) W-SW 0,00 h 0,025 mm 0,0 UV-I 0 W/m 9,4 C 11,5 C 8,7 km/h (2 Bft)
25.09.2014 20:00 11,3 C 87 % 1020,8 hPa 0,0 l/m 4,7 km/h (1 Bft) W-SW 0,00 h 0,000 mm 0,0 UV-I 0 W/m 9,3 C 11,3 C 7,8 km/h (2 Bft)
25.09.2014 21:00 10,9 C 89 % 1021,3 hPa 0,0 l/m 3,9 km/h (1 Bft) W-SW 0,00 h 0,025 mm 0,0 UV-I 0 W/m 9,1 C 10,9 C 6,5 km/h (2 Bft)
25.09.2014 22:00 10,3 C 90 % 1021,6 hPa 0,0 l/m 0,5 km/h (0 Bft) W-SW 0,00 h 0,000 mm 0,0 UV-I 0 W/m 8,7 C 10,3 C 1,5 km/h (1 Bft)
25.09.2014 23:00 9,9 C 92 % 1022,0 hPa 0,0 l/m 0,6 km/h (0 Bft) SW 0,00 h 0,000 mm 0,0 UV-I 0 W/m 8,6 C 9,9 C 1,8 km/h (1 Bft)
26.09.2014 00:00 10,3 C 91 % 1021,9 hPa 0,0 l/m 4,3 km/h (1 Bft) W-SW 0,00 h 0,000 mm 0,0 UV-I 0 W/m 8,9 C 10,0 C 7,6 km/h (2 Bft)
26.09.2014 01:00 10,8 C 89 % 1022,2 hPa 0,0 l/m 5,9 km/h (2 Bft) W 0,00 h 0,000 mm 0,0 UV-I 0 W/m 9,1 C 10,5 C 9,4 km/h (2 Bft)
26.09.2014 02:00 10,6 C 91 % 1022,0 hPa 0,0 l/m 5,5 km/h (1 Bft) W 0,00 h 0,000 mm 0,0 UV-I 0 W/m 9,2 C 10,5 C 8,7 km/h (2 Bft)
26.09.2014 03:00 10,6 C 90 % 1021,7 hPa 0,0 l/m 5,7 km/h (1 Bft) W 0,00 h 0,000 mm 0,0 UV-I 0 W/m 9,0 C 10,5 C 9,4 km/h (2 Bft)
26.09.2014 04:00 10,6 C 90 % 1021,7 hPa 0,0 l/m 3,7 km/h (1 Bft) W 0,00 h 0,000 mm 0,0 UV-I 0 W/m 9,0 C 10,6 C 6,4 km/h (2 Bft)
26.09.2014 05:00 10,7 C 90 % 1021,7 hPa 0,0 l/m 4,6 km/h (1 Bft) W-SW 0,00 h 0,000 mm 0,0 UV-I 0 W/m 9,1 C 10,6 C 7,7 km/h (2 Bft)
26.09.2014 06:00 10,4 C 92 % 1021,6 hPa 0,0 l/m 4,0 km/h (1 Bft) W-SW 0,00 h 0,000 mm 0,0 UV-I 0 W/m 9,1 C 10,4 C 6,8 km/h (2 Bft)
26.09.2014 07:00 10,3 C 92 % 1021,8 hPa 0,0 l/m 4,8 km/h (1 Bft) W-SW 0,00 h 0,000 mm 0,0 UV-I 13 W/m 9,1 C 10,2 C 8,4 km/h (2 Bft)
26.09.2014 08:00 10,5 C 91 % 1022,2 hPa 0,0 l/m 5,2 km/h (1 Bft) W-SW 0,00 h 0,000 mm 0,0 UV-I 30 W/m 9,2 C 10,4 C 8,3 km/h (2 Bft)
26.09.2014 09:00 10,9 C 90 % 1022,8 hPa 0,0 l/m 6,7 km/h (2 Bft) W-SW 0,75 h 0,025 mm 0,5 UV-I 64 W/m 9,2 C 10,2 C 10,6 km/h (2 Bft)
26.09.2014 10:00 11,6 C 86 % 1023,1 hPa 0,0 l/m 9,0 km/h (2 Bft) W-SW 1,00 h 0,051 mm 1,1 UV-I 149 W/m 9,3 C 9,9 C 13,9 km/h (3 Bft)
26.09.2014 11:00 12,3 C 83 % 1023,1 hPa 0,0 l/m 10,8 km/h (2 Bft) W 1,00 h 0,076 mm 1,6 UV-I 192 W/m 9,4 C 9,8 C 15,9 km/h (3 Bft)
26.09.2014 12:00 12,4 C 85 % 1023,3 hPa 0,0 l/m 8,3 km/h (2 Bft) W 1,00 h 0,127 mm 1,0 UV-I 104 W/m 9,9 C 11,0 C 12,7 km/h (3 Bft)
26.09.2014 13:00 12,7 C 83 % 1023,2 hPa 0,0 l/m 8,0 km/h (2 Bft) W 1,00 h 0,076 mm 1,2 UV-I 136 W/m 10,0 C 11,6 C 12,2 km/h (2 Bft)
26.09.2014 14:00 13,4 C 82 % 1023,2 hPa 0,0 l/m 8,0 km/h (2 Bft) W 1,00 h 0,076 mm 1,2 UV-I 141 W/m 10,4 C 12,3 C 12,2 km/h (3 Bft)
26.09.2014 15:00 13,6 C 82 % 1023,2 hPa 0,0 l/m 7,6 km/h (2 Bft) W-NW 1,00 h 0,102 mm 1,1 UV-I 148 W/m 10,6 C 12,8 C 11,7 km/h (2 Bft)
26.09.2014 16:00 13,4 C 84 % 1023,3 hPa 0,0 l/m 5,4 km/h (1 Bft) W-NW 0,45 h 0,102 mm 0,6 UV-I 57 W/m 10,8 C 13,2 C 8,4 km/h (2 Bft)
26.09.2014 17:00 13,5 C 85 % 1023,5 hPa 0,0 l/m 5,1 km/h (1 Bft) W-NW 0,00 h 0,051 mm 0,0 UV-I 29 W/m 11,1 C 13,4 C 8,1 km/h (2 Bft)
26.09.2014 18:00 13,4 C 86 % 1023,7 hPa 0,0 l/m 3,8 km/h (1 Bft) W-NW 0,00 h 0,025 mm 0,0 UV-I 7 W/m 11,2 C 13,4 C 6,3 km/h (2 Bft)
26.09.2014 19:00 13,2 C 88 % 1023,7 hPa 0,0 l/m 3,0 km/h (1 Bft) W-NW 0,00 h 0,000 mm 0,0 UV-I 0 W/m 11,2 C 13,2 C 5,4 km/h (1 Bft)
26.09.2014 20:00 13,0 C 89 % 1024,1 hPa 0,0 l/m 5,0 km/h (1 Bft) W-NW 0,00 h 0,000 mm 0,0 UV-I 0 W/m 11,2 C 12,9 C 8,1 km/h (2 Bft)
26.09.2014 21:00 12,9 C 90 % 1024,5 hPa 0,0 l/m 5,1 km/h (1 Bft) W-NW 0,00 h 0,025 mm 0,0 UV-I 0 W/m 11,3 C 12,7 C 8,3 km/h (2 Bft)
26.09.2014 22:00 12,7 C 92 % 1024,8 hPa 0,0 l/m 3,1 km/h (1 Bft) W-NW 0,00 h 0,000 mm 0,0 UV-I 0 W/m 11,4 C 12,7 C 5,3 km/h (1 Bft)
26.09.2014 23:00 12,5 C 94 % 1025,0 hPa 0,0 l/m 0,9 km/h (0 Bft) W 0,00 h 0,000 mm 0,0 UV-I 0 W/m 11,5 C 12,5 C 2,2 km/h (1 Bft)
27.09.2014 00:00 12,4 C 94 % 1025,2 hPa 0,0 l/m 0,6 km/h (0 Bft) W-NW 0,00 h 0,000 mm 0,0 UV-I 0 W/m 11,5 C 12,4 C 2,1 km/h (1 Bft)
27.09.2014 01:00 12,4 C 94 % 1025,4 hPa 0,0 l/m 0,1 km/h (0 Bft) W-NW 0,00 h 0,000 mm 0,0 UV-I 0 W/m 11,5 C 12,4 C 0,3 km/h (0 Bft)
27.09.2014 02:00 12,3 C 94 % 1025,4 hPa 0,0 l/m 0,0 km/h (0 Bft) W-NW 0,00 h 0,000 mm 0,0 UV-I 0 W/m 11,4 C 12,3 C 0,3 km/h (0 Bft)
27.09.2014 03:00 12,2 C 95 % 1025,7 hPa 0,0 l/m 0,1 km/h (0 Bft) W-NW 0,00 h 0,000 mm 0,0 UV-I 0 W/m 11,4 C 12,2 C 0,5 km/h (0 Bft)
27.09.2014 04:00 12,3 C 95 % 1025,9 hPa 0,0 l/m 0,1 km/h (0 Bft) W-NW 0,00 h 0,000 mm 0,0 UV-I 0 W/m 11,5 C 12,3 C 0,5 km/h (0 Bft)
27.09.2014 05:00 12,2 C 95 % 1026,1 hPa 0,0 l/m 0,0 km/h (0 Bft) W-NW 0,00 h 0,000 mm 0,0 UV-I 0 W/m 11,4 C 12,2 C 0,3 km/h (0 Bft)
27.09.2014 06:00 12,1 C 95 % 1026,5 hPa 0,0 l/m 0,0 km/h (0 Bft) N 0,00 h 0,000 mm 0,0 UV-I 0 W/m 11,3 C 12,1 C 0,0 km/h (0 Bft)
27.09.2014 07:00 11,8 C 95 % 1026,9 hPa 0,0 l/m 0,0 km/h (0 Bft) N 0,00 h 0,000 mm 0,0 UV-I 14 W/m 11,1 C 11,8 C 0,0 km/h (0 Bft)
27.09.2014 08:00 12,1 C 96 % 1027,4 hPa 0,0 l/m 0,0 km/h (0 Bft) N 0,65 h 0,000 mm 0,5 UV-I 66 W/m 11,5 C 12,1 C 0,1 km/h (0 Bft)
27.09.2014 09:00 13,3 C 93 % 1027,8 hPa 0,0 l/m 0,0 km/h (0 Bft) W-NW 1,00 h 0,025 mm 0,8 UV-I 147 W/m 12,1 C 13,3 C 0,2 km/h (0 Bft)
27.09.2014 10:00 14,9 C 86 % 1028,2 hPa 0,0 l/m 1,8 km/h (1 Bft) W-NW 1,00 h 0,076 mm 1,4 UV-I 249 W/m 12,5 C 14,8 C 3,7 km/h (1 Bft)
27.09.2014 11:00 16,7 C 75 % 1028,3 hPa 0,0 l/m 3,2 km/h (1 Bft) N-NW 1,00 h 0,152 mm 2,8 UV-I 514 W/m 12,3 C 16,7 C 5,6 km/h (1 Bft)
27.09.2014 12:00 18,3 C 64 % 1028,2 hPa 0,0 l/m 6,7 km/h (2 Bft) W-NW 1,00 h 0,279 mm 3,4 UV-I 572 W/m 11,3 C 17,6 C 10,7 km/h (2 Bft)
27.09.2014 13:00 18,8 C 59 % 1028,0 hPa 0,0 l/m 6,7 km/h (2 Bft) NW 1,00 h 0,356 mm 3,2 UV-I 500 W/m 10,6 C 18,3 C 10,6 km/h (2 Bft)
27.09.2014 14:00 18,3 C 60 % 1027,7 hPa 0,0 l/m 4,9 km/h (1 Bft) N-NW 1,00 h 0,305 mm 2,3 UV-I 254 W/m 10,4 C 18,2 C 8,2 km/h (2 Bft)
27.09.2014 15:00 19,4 C 56 % 1027,5 hPa 0,0 l/m 4,9 km/h (1 Bft) NW 1,00 h 0,203 mm 2,1 UV-I 444 W/m 10,3 C 19,2 C 7,9 km/h (2 Bft)
27.09.2014 16:00 18,9 C 58 % 1027,3 hPa 0,0 l/m 5,6 km/h (1 Bft) N-NO 1,00 h 0,279 mm 1,1 UV-I 270 W/m 10,4 C 18,6 C 9,1 km/h (2 Bft)
27.09.2014 17:00 17,9 C 63 % 1027,1 hPa 0,0 l/m 3,5 km/h (1 Bft) NW 0,98 h 0,178 mm 0,6 UV-I 94 W/m 10,7 C 17,8 C 6,1 km/h (2 Bft)
27.09.2014 18:00 16,3 C 71 % 1027,2 hPa 0,0 l/m 0,9 km/h (0 Bft) N-NO 0,15 h 0,076 mm 0,0 UV-I 26 W/m 10,9 C 16,3 C 2,8 km/h (1 Bft)
27.09.2014 19:00 14,7 C 79 % 1027,5 hPa 0,0 l/m 0,0 km/h (0 Bft) N 0,00 h 0,025 mm 0,0 UV-I 0 W/m 11,1 C 14,7 C 0,2 km/h (0 Bft)
27.09.2014 20:00 12,7 C 85 % 1027,7 hPa 0,0 l/m 0,0 km/h (0 Bft) NO 0,00 h 0,000 mm 0,0 UV-I 0 W/m 10,3 C 12,7 C 0,2 km/h (0 Bft)
27.09.2014 21:00 11,0 C 89 % 1028,0 hPa 0,0 l/m 0,0 km/h (0 Bft) N 0,00 h 0,000 mm 0,0 UV-I 0 W/m 9,2 C 11,0 C 0,1 km/h (0 Bft)
27.09.2014 22:00 9,6 C 90 % 1028,2 hPa 0,0 l/m 0,0 km/h (0 Bft) N 0,00 h 0,000 mm 0,0 UV-I 0 W/m 8,0 C 9,6 C 0,1 km/h (0 Bft)
27.09.2014 23:00 8,4 C 90 % 1028,4 hPa 0,0 l/m 0,0 km/h (0 Bft) N 0,00 h 0,000 mm 0,0 UV-I 0 W/m 7,0 C 8,4 C 0,0 km/h (0 Bft)
28.09.2014 00:00 7,6 C 92 % 1028,3 hPa 0,0 l/m 0,0 km/h (0 Bft) N 0,00 h 0,000 mm 0,0 UV-I 0 W/m 6,3 C 7,6 C 0,0 km/h (0 Bft)
28.09.2014 01:00 6,8 C 92 % 1028,4 hPa 0,0 l/m 0,1 km/h (0 Bft) N-NO 0,00 h 0,000 mm 0,0 UV-I 0 W/m 5,6 C 6,8 C 0,3 km/h (0 Bft)
28.09.2014 02:00 6,1 C 93 % 1028,4 hPa 0,0 l/m 0,2 km/h (0 Bft) N 0,00 h 0,000 mm 0,0 UV-I 0 W/m 5,1 C 6,1 C 0,8 km/h (0 Bft)
28.09.2014 03:00 5,6 C 94 % 1028,0 hPa 0,0 l/m 0,0 km/h (0 Bft) N 0,00 h 0,000 mm 0,0 UV-I 0 W/m 4,7 C 5,6 C 0,0 km/h (0 Bft)
28.09.2014 04:00 4,9 C 93 % 1027,7 hPa 0,0 l/m 0,0 km/h (0 Bft) N 0,00 h 0,000 mm 0,0 UV-I 0 W/m 3,9 C 4,9 C 0,2 km/h (0 Bft)
28.09.2014 05:00 4,3 C 94 % 1027,5 hPa 0,0 l/m 0,1 km/h (0 Bft) N 0,00 h 0,000 mm 0,0 UV-I 0 W/m 3,3 C 4,3 C 0,3 km/h (0 Bft)
28.09.2014 06:00 3,7 C 94 % 1027,4 hPa 0,0 l/m 0,1 km/h (0 Bft) N 0,00 h 0,000 mm 0,0 UV-I 0 W/m 2,8 C 3,7 C 0,2 km/h (0 Bft)
28.09.2014 07:00 3,6 C 95 % 1027,6 hPa 0,0 l/m 0,0 km/h (0 Bft) N 0,15 h 0,000 mm 0,0 UV-I 29 W/m 2,9 C 3,6 C 0,2 km/h (0 Bft)
28.09.2014 08:00 4,9 C 97 % 1028,0 hPa 0,0 l/m 0,0 km/h (0 Bft) N 1,00 h 0,000 mm 0,6 UV-I 139 W/m 4,4 C 4,9 C 0,2 km/h (0 Bft)
28.09.2014 09:00 8,1 C 94 % 1028,2 hPa 0,0 l/m 0,2 km/h (0 Bft) W-NW 1,00 h 0,051 mm 1,0 UV-I 310 W/m 7,1 C 8,1 C 0,9 km/h (0 Bft)
28.09.2014 10:00 13,4 C 84 % 1028,0 hPa 0,0 l/m 1,7 km/h (1 Bft) NW 1,00 h 0,127 mm 2,1 UV-I 489 W/m 10,8 C 13,4 C 3,9 km/h (1 Bft)
28.09.2014 11:00 17,1 C 72 % 1027,7 hPa 0,0 l/m 1,5 km/h (1 Bft) NW 1,00 h 0,254 mm 3,0 UV-I 586 W/m 11,9 C 17,1 C 3,7 km/h (1 Bft)
28.09.2014 12:00 18,7 C 64 % 1027,3 hPa 0,0 l/m 2,7 km/h (1 Bft) W-NW 1,00 h 0,330 mm 3,5 UV-I 627 W/m 11,7 C 18,7 C 5,1 km/h (1 Bft)
28.09.2014 13:00 19,9 C 62 % 1026,6 hPa 0,0 l/m 2,4 km/h (1 Bft) SO 1,00 h 0,356 mm 3,5 UV-I 622 W/m 12,4 C 19,9 C 4,8 km/h (1 Bft)
28.09.2014 14:00 20,6 C 60 % 1026,0 hPa 0,0 l/m 3,8 km/h (1 Bft) SO 1,00 h 0,381 mm 2,9 UV-I 545 W/m 12,5 C 20,5 C 7,4 km/h (2 Bft)
28.09.2014 15:00 20,5 C 58 % 1025,6 hPa 0,0 l/m 4,2 km/h (1 Bft) SO 1,00 h 0,330 mm 2,0 UV-I 438 W/m 12,1 C 20,5 C 8,1 km/h (2 Bft)
28.09.2014 16:00 19,5 C 60 % 1025,3 hPa 0,0 l/m 4,7 km/h (1 Bft) SO 1,00 h 0,279 mm 1,1 UV-I 250 W/m 11,5 C 19,3 C 9,0 km/h (2 Bft)
28.09.2014 17:00 18,3 C 64 % 1025,2 hPa 0,0 l/m 4,4 km/h (1 Bft) SO 1,00 h 0,178 mm 0,6 UV-I 115 W/m 11,4 C 18,2 C 8,4 km/h (2 Bft)
28.09.2014 18:00 16,4 C 72 % 1025,2 hPa 0,0 l/m 1,8 km/h (1 Bft) SO 0,03 h 0,076 mm 0,0 UV-I 24 W/m 11,4 C 16,4 C 4,1 km/h (1 Bft)
28.09.2014 19:00 14,7 C 79 % 1025,3 hPa 0,0 l/m 1,0 km/h (0 Bft) O 0,00 h 0,025 mm 0,0 UV-I 0 W/m 11,0 C 14,7 C 2,6 km/h (1 Bft)
28.09.2014 20:00 13,3 C 83 % 1025,8 hPa 0,0 l/m 0,2 km/h (0 Bft) N 0,00 h 0,000 mm 0,0 UV-I 0 W/m 10,5 C 13,3 C 0,8 km/h (0 Bft)
28.09.2014 21:00 11,8 C 87 % 1026,0 hPa 0,0 l/m 0,1 km/h (0 Bft) O-SO 0,00 h 0,025 mm 0,0 UV-I 0 W/m 9,6 C 11,8 C 0,5 km/h (0 Bft)
28.09.2014 22:00 10,3 C 89 % 1026,0 hPa 0,0 l/m 0,0 km/h (0 Bft) N 0,00 h 0,000 mm 0,0 UV-I 0 W/m 8,7 C 10,3 C 0,1 km/h (0 Bft)
28.09.2014 23:00 9,3 C 91 % 1025,9 hPa 0,0 l/m 0,0 km/h (0 Bft) N 0,00 h 0,000 mm 0,0 UV-I 0 W/m 7,9 C 9,3 C 0,0 km/h (0 Bft)
Min-Datum _ 25.09.14 24.09.14 24.09.14 - 22.09.14 - - - - - 24.09.14 22.09.14 22.09.14
_ Min-Zeit 08:25 14:58 18:16 - 00:01 - - - - - 05:02 12:43 00:01
Minimum _ 0,0 C 49 % 1011,7 hPa - 0,0 km/h (0 Bft) - - - - - 0,7 C 1,1 C 0,0 km/h (0 Bft)
Max-Datum _ 28.09.14 24.09.14 28.09.14 22.09.14 22.09.14 - 23.09.14 24.09.14 23.09.14 23.09.14 28.09.14 28.09.14 22.09.14
_ Max-Zeit 14:11 08:59 01:40 16:23 10:30 - 17:36 14:00 12:42 12:42 14:11 14:07 16:25
Maximum _ 21,0 C 98 % 1028,6 hPa 2,4 l/m 24,1 km/h
W (4 Bft)
- 0,07 h 0,381 mm 4,8 UV-I 900 W/m 14,1 C 20,9 C 40,2 km/h
NW (6 Bft)
Durchschnitt _ 10,8 C 86 % 1020,5 hPa #8,4 l/m 3,7 km/h (1 Bft) W #62:56 h #9,722 mm 1,5 UV-I 193 W/m 8,3 C 10,4 C 6,1 km/h (2 Bft)